createdAt,value
2022-08-26T00:01:12.083Z,11.67
2022-08-26T00:03:41.183Z,13.00
2022-08-26T00:06:10.647Z,11.00
2022-08-26T00:08:43.399Z,11.00
2022-08-26T00:11:15.755Z,10.67
2022-08-26T00:13:56.891Z,10.00
2022-08-26T00:16:28.236Z,10.67
2022-08-26T00:18:57.345Z,10.50
2022-08-26T00:21:26.744Z,11.33
2022-08-26T00:23:55.990Z,13.33
2022-08-26T00:26:28.426Z,12.33
2022-08-26T00:28:58.664Z,12.33
2022-08-26T00:31:27.345Z,12.67
2022-08-26T00:33:55.997Z,12.00
2022-08-26T00:36:24.629Z,9.00
2022-08-26T00:38:59.419Z,13.00
2022-08-26T00:41:28.893Z,14.00
2022-08-26T00:43:57.659Z,13.50
2022-08-26T00:46:31.800Z,14.33
2022-08-26T00:49:39.019Z,13.00
2022-08-26T00:52:16.806Z,12.00
2022-08-26T00:55:22.406Z,12.00
2022-08-26T00:57:53.098Z,14.00
2022-08-26T01:00:28.370Z,13.33
2022-08-26T01:03:00.495Z,10.00
2022-08-26T01:05:30.286Z,14.00
2022-08-26T01:07:59.323Z,13.00
2022-08-26T01:10:31.436Z,12.50
2022-08-26T01:13:10.161Z,13.33
2022-08-26T01:15:51.416Z,14.00
2022-08-26T01:18:20.874Z,12.00
2022-08-26T01:21:25.266Z,14.00
2022-08-26T01:23:57.516Z,15.00
2022-08-26T01:26:36.489Z,21.33
2022-08-26T01:29:08.497Z,13.33
2022-08-26T01:31:44.536Z,19.00
2022-08-26T01:34:19.664Z,15.00
2022-08-26T01:36:52.024Z,14.33
2022-08-26T01:39:21.374Z,14.33
2022-08-26T01:41:56.944Z,13.33
2022-08-26T01:44:33.192Z,13.00
2022-08-26T01:47:03.173Z,13.50
2022-08-26T01:49:37.081Z,12.00
2022-08-26T01:52:08.650Z,13.67
2022-08-26T01:54:39.614Z,13.33
2022-08-26T01:57:08.813Z,14.00
2022-08-26T01:59:39.388Z,12.33
2022-08-26T02:02:08.240Z,15.00
2022-08-26T02:04:49.929Z,12.67
2022-08-26T02:07:21.729Z,12.00
2022-08-26T02:09:50.412Z,15.33
2022-08-26T02:12:21.216Z,14.33
2022-08-26T02:14:56.548Z,13.00
2022-08-26T02:17:41.303Z,14.00
2022-08-26T02:20:15.318Z,13.00
2022-08-26T02:22:45.602Z,15.33
2022-08-26T02:25:46.746Z,14.00
2022-08-26T02:28:17.798Z,14.00
2022-08-26T02:30:49.110Z,14.00
2022-08-26T02:33:19.461Z,14.00
2022-08-26T02:35:48.263Z,14.67
2022-08-26T02:38:16.928Z,11.50
2022-08-26T02:40:46.418Z,13.67
2022-08-26T02:43:17.146Z,14.00
2022-08-26T02:45:46.342Z,13.00
2022-08-26T02:48:21.389Z,14.33
2022-08-26T02:50:50.310Z,11.00
2022-08-26T02:53:25.068Z,13.67
2022-08-26T02:55:54.221Z,15.33
2022-08-26T02:58:23.481Z,15.00
2022-08-26T03:00:53.789Z,14.50
2022-08-26T03:03:23.683Z,13.00
2022-08-26T03:05:53.839Z,14.00
2022-08-26T03:08:23.132Z,14.00
2022-08-26T03:10:51.908Z,14.00
2022-08-26T03:13:20.574Z,15.00
2022-08-26T03:15:49.270Z,14.33
2022-08-26T03:18:18.216Z,13.00
2022-08-26T03:20:49.184Z,14.33
2022-08-26T03:23:18.729Z,13.67
2022-08-26T03:25:52.238Z,14.50
2022-08-26T03:28:21.104Z,14.00
2022-08-26T03:30:49.728Z,14.33
2022-08-26T03:33:19.571Z,12.00
2022-08-26T03:35:50.471Z,14.00
2022-08-26T03:38:25.207Z,15.00
2022-08-26T03:40:53.904Z,13.50
2022-08-26T03:43:26.830Z,15.00
2022-08-26T03:45:55.474Z,14.67
2022-08-26T03:48:24.167Z,12.00
2022-08-26T03:50:53.394Z,15.67
2022-08-26T03:53:21.992Z,14.00
2022-08-26T03:55:51.883Z,11.33
2022-08-26T03:58:24.505Z,13.50
2022-08-26T04:00:55.381Z,13.67
2022-08-26T04:03:45.014Z,13.67
2022-08-26T04:06:13.411Z,14.00
2022-08-26T04:08:42.726Z,14.50
2022-08-26T04:11:22.930Z,13.00
2022-08-26T04:13:52.363Z,14.00
2022-08-26T04:16:21.965Z,16.00
2022-08-26T04:18:51.472Z,13.67
2022-08-26T04:21:20.399Z,14.00
2022-08-26T04:23:50.462Z,15.00
2022-08-26T04:26:22.158Z,16.00
2022-08-26T04:28:55.886Z,16.33
2022-08-26T04:31:26.454Z,17.50
2022-08-26T04:33:59.784Z,16.67
2022-08-26T04:36:29.192Z,15.00
2022-08-26T04:39:01.131Z,13.67
2022-08-26T04:41:31.768Z,15.67
2022-08-26T04:44:01.904Z,15.33
2022-08-26T04:46:30.545Z,16.00
2022-08-26T04:49:00.296Z,17.00
2022-08-26T04:51:28.998Z,14.67
2022-08-26T04:53:59.970Z,14.67
2022-08-26T04:56:37.099Z,14.00
2022-08-26T04:59:16.706Z,15.00
2022-08-26T05:01:51.410Z,12.00
2022-08-26T05:04:22.233Z,13.00
2022-08-26T05:06:52.183Z,13.00
2022-08-26T05:09:21.540Z,8.00
2022-08-26T05:11:52.342Z,13.00
2022-08-26T05:14:23.455Z,12.00
2022-08-26T05:16:52.835Z,13.33
2022-08-26T05:19:25.313Z,12.33
2022-08-26T05:21:56.499Z,13.00
2022-08-26T05:24:25.999Z,14.00
2022-08-26T05:26:56.453Z,13.67
2022-08-26T05:29:25.407Z,11.67
2022-08-26T05:31:54.173Z,14.00
2022-08-26T05:34:25.784Z,12.00
2022-08-26T05:36:59.362Z,12.33
2022-08-26T05:39:27.986Z,12.67
2022-08-26T05:41:57.170Z,13.00
2022-08-26T05:44:25.947Z,12.50
2022-08-26T05:46:54.656Z,13.00
2022-08-26T05:49:26.351Z,12.00
2022-08-26T05:51:55.304Z,12.00
2022-08-26T05:54:24.168Z,11.00
2022-08-26T05:56:52.967Z,11.67
2022-08-26T05:59:24.646Z,10.67
2022-08-26T06:01:57.419Z,11.00
2022-08-26T06:04:27.553Z,11.00
2022-08-26T06:06:59.161Z,12.50
2022-08-26T06:09:27.939Z,12.00
2022-08-26T06:11:58.924Z,10.67
2022-08-26T06:14:27.660Z,12.00
2022-08-26T06:16:57.699Z,11.00
2022-08-26T06:19:26.399Z,12.00
2022-08-26T06:22:23.281Z,10.00
2022-08-26T06:25:10.742Z,10.00
2022-08-26T06:27:39.606Z,9.67
2022-08-26T06:30:10.068Z,10.00
2022-08-26T06:32:38.982Z,9.00
2022-08-26T06:35:12.189Z,9.50
2022-08-26T06:37:41.258Z,8.33
2022-08-26T06:40:11.486Z,10.00
2022-08-26T06:42:40.741Z,7.00
2022-08-26T06:45:09.932Z,9.00
2022-08-26T06:47:39.738Z,6.00
2022-08-26T06:50:08.825Z,9.00
2022-08-26T06:52:37.790Z,9.00
2022-08-26T06:55:07.117Z,8.67
2022-08-26T06:57:39.692Z,7.67
2022-08-26T07:00:11.591Z,8.50
2022-08-26T07:02:41.259Z,8.33
2022-08-26T07:05:15.556Z,6.00
2022-08-26T07:07:44.139Z,10.00
2022-08-26T07:10:12.660Z,8.67
2022-08-26T07:12:41.179Z,10.00
2022-08-26T07:15:10.626Z,7.00
2022-08-26T07:17:39.548Z,8.00
2022-08-26T07:20:11.663Z,7.67
2022-08-26T07:22:40.228Z,9.00
2022-08-26T07:25:11.549Z,8.67
2022-08-26T07:27:40.234Z,7.00
2022-08-26T07:30:09.941Z,8.00
2022-08-26T07:32:43.608Z,7.00
2022-08-26T07:35:12.107Z,8.00
2022-08-26T07:37:40.760Z,7.67
2022-08-26T07:40:10.442Z,9.67
2022-08-26T07:42:40.167Z,8.00
2022-08-26T07:45:09.412Z,8.67
2022-08-26T07:47:38.111Z,8.33
2022-08-26T07:50:07.395Z,9.00
2022-08-26T07:52:38.366Z,9.00
2022-08-26T07:55:10.773Z,7.67
2022-08-26T07:57:39.959Z,5.67
2022-08-26T08:00:16.205Z,8.33
2022-08-26T08:02:45.279Z,8.00
2022-08-26T08:05:19.709Z,7.33
2022-08-26T08:07:53.634Z,8.33
2022-08-26T08:10:39.363Z,8.00
2022-08-26T08:13:08.685Z,9.00
2022-08-26T08:15:39.328Z,8.00
2022-08-26T08:18:15.397Z,9.67
2022-08-26T08:20:47.720Z,8.00
2022-08-26T08:23:33.721Z,8.00
2022-08-26T08:26:07.491Z,6.00
2022-08-26T08:28:39.024Z,8.33
2022-08-26T08:31:10.471Z,8.67
2022-08-26T08:33:38.951Z,9.00
2022-08-26T08:36:09.252Z,7.33
2022-08-26T08:38:37.912Z,8.00
2022-08-26T08:41:06.693Z,8.00
2022-08-26T08:43:46.563Z,8.33
2022-08-26T08:46:19.555Z,7.00
2022-08-26T08:48:57.013Z,7.33
2022-08-26T08:51:59.240Z,7.33
2022-08-26T08:54:29.243Z,7.00
2022-08-26T08:57:38.797Z,7.67
2022-08-26T09:00:18.237Z,8.33
2022-08-26T09:03:04.751Z,7.67
2022-08-26T09:05:48.509Z,7.67
2022-08-26T09:08:27.618Z,9.67
2022-08-26T09:11:00.562Z,8.33
2022-08-26T09:13:31.835Z,6.33
2022-08-26T09:16:25.606Z,7.33
2022-08-26T09:19:54.728Z,7.67
2022-08-26T09:22:36.059Z,7.33
2022-08-26T09:25:12.941Z,8.00
2022-08-26T09:27:50.758Z,9.00
2022-08-26T09:30:30.077Z,7.00
2022-08-26T09:33:11.417Z,7.33
2022-08-26T09:35:47.115Z,6.00
2022-08-26T09:38:27.881Z,7.33
2022-08-26T09:41:27.094Z,7.00
2022-08-26T09:44:19.292Z,7.67
2022-08-26T09:47:05.529Z,7.00
2022-08-26T09:49:38.702Z,7.67
2022-08-26T09:52:24.701Z,7.00
2022-08-26T09:55:24.106Z,7.67
2022-08-26T09:57:55.591Z,8.00
2022-08-26T10:00:54.203Z,6.33
2022-08-26T10:03:36.633Z,7.00
2022-08-26T10:06:17.764Z,7.00
2022-08-26T10:08:59.265Z,8.00
2022-08-26T10:11:49.013Z,4.67
2022-08-26T10:14:30.171Z,6.00
2022-08-26T10:17:55.413Z,8.00
2022-08-26T10:20:36.847Z,6.00
2022-08-26T10:23:18.203Z,5.00
2022-08-26T10:26:00.594Z,6.33
2022-08-26T10:28:44.453Z,7.67
2022-08-26T10:32:02.492Z,8.00
2022-08-26T10:34:35.067Z,8.33
2022-08-26T10:37:20.629Z,6.00
2022-08-26T10:40:07.704Z,7.00
2022-08-26T10:42:47.049Z,6.67
2022-08-26T10:45:28.628Z,5.00
2022-08-26T10:48:11.424Z,6.00
2022-08-26T10:50:47.398Z,8.00
2022-08-26T10:53:46.843Z,8.00
2022-08-26T10:57:16.180Z,6.00
2022-08-26T10:59:52.327Z,6.33
2022-08-26T11:02:46.962Z,7.00
2022-08-26T11:05:23.778Z,4.33
2022-08-26T11:07:57.095Z,6.00
2022-08-26T11:10:25.520Z,5.00
2022-08-26T11:13:03.674Z,5.00
2022-08-26T11:15:32.770Z,6.00
2022-08-26T11:18:36.911Z,5.00
2022-08-26T11:21:52.158Z,6.33
2022-08-26T11:24:57.180Z,6.00
2022-08-26T11:27:37.452Z,15.43
2022-08-26T11:30:37.042Z,5.33
2022-08-26T11:33:07.184Z,6.00
2022-08-26T11:35:38.933Z,5.67
2022-08-26T11:38:29.197Z,6.00
2022-08-26T11:41:17.946Z,6.00
2022-08-26T11:43:49.523Z,6.00
2022-08-26T11:46:28.419Z,6.00
2022-08-26T11:49:07.272Z,6.00
2022-08-26T11:51:40.174Z,6.00
2022-08-26T11:54:26.948Z,6.00
2022-08-26T11:57:09.496Z,7.00
2022-08-26T11:59:43.546Z,2.67
2022-08-26T12:02:17.842Z,3.67
2022-08-26T12:04:51.324Z,5.00
2022-08-26T12:07:28.508Z,5.00
2022-08-26T12:10:02.474Z,6.00
2022-08-26T12:12:42.595Z,5.00
2022-08-26T12:15:24.256Z,6.00
2022-08-26T12:17:54.598Z,5.00
2022-08-26T12:20:48.697Z,6.33
2022-08-26T12:23:37.345Z,6.00
2022-08-26T12:26:34.050Z,6.00
2022-08-26T12:29:31.659Z,6.00
2022-08-26T12:32:15.777Z,5.00
2022-08-26T12:34:49.099Z,5.00
2022-08-26T12:37:19.005Z,5.00
2022-08-26T12:39:49.288Z,7.00
2022-08-26T12:42:21.935Z,5.00
2022-08-26T12:45:06.651Z,6.00
2022-08-26T12:47:44.457Z,6.00
2022-08-26T12:50:25.941Z,6.00
2022-08-26T12:53:10.623Z,5.00
2022-08-26T12:55:48.752Z,5.33
2022-08-26T12:58:36.746Z,6.00
2022-08-26T13:01:05.353Z,6.00
2022-08-26T13:03:43.403Z,7.00
2022-08-26T13:06:23.837Z,6.00
2022-08-26T13:08:56.002Z,6.00
2022-08-26T13:11:41.185Z,6.67
2022-08-26T13:14:23.851Z,6.00
2022-08-26T13:16:53.881Z,7.00
2022-08-26T13:19:25.818Z,6.00
2022-08-26T13:21:58.026Z,6.00
2022-08-26T13:24:38.671Z,5.00
2022-08-26T13:27:11.884Z,5.33
2022-08-26T13:29:41.574Z,5.33
2022-08-26T13:32:11.035Z,5.33
2022-08-26T13:34:40.055Z,5.67
2022-08-26T13:37:08.544Z,7.00
2022-08-26T13:39:38.228Z,6.00
2022-08-26T13:42:06.851Z,4.33
2022-08-26T13:44:36.374Z,4.00
2022-08-26T13:47:06.074Z,5.00
2022-08-26T13:49:34.448Z,6.33
2022-08-26T13:52:03.782Z,7.00
2022-08-26T13:54:32.247Z,6.00
2022-08-26T13:57:00.719Z,5.33
2022-08-26T13:59:29.342Z,6.00
2022-08-26T14:01:58.898Z,4.67
2022-08-26T14:04:27.668Z,6.00
2022-08-26T14:06:57.037Z,5.33
2022-08-26T14:09:25.610Z,6.00
2022-08-26T14:11:55.044Z,7.00
2022-08-26T14:14:25.159Z,5.67
2022-08-26T14:16:59.817Z,5.33
2022-08-26T14:19:30.857Z,7.00
2022-08-26T14:22:01.542Z,7.00
2022-08-26T14:24:30.651Z,5.00
2022-08-26T14:26:59.583Z,6.00
2022-08-26T14:29:28.454Z,7.00
2022-08-26T14:31:59.804Z,7.00
2022-08-26T14:34:28.398Z,6.00
2022-08-26T14:36:56.796Z,6.00
2022-08-26T14:39:25.263Z,6.33
2022-08-26T14:41:57.184Z,6.33
2022-08-26T14:44:32.719Z,5.00
2022-08-26T14:47:05.015Z,6.00
2022-08-26T14:49:33.664Z,7.00
2022-08-26T14:52:03.224Z,9.00
2022-08-26T14:54:31.718Z,7.00
2022-08-26T14:57:05.592Z,6.33
2022-08-26T14:59:39.694Z,5.00
2022-08-26T15:02:13.657Z,6.33
2022-08-26T15:04:50.740Z,6.00
2022-08-26T15:07:19.240Z,5.00
2022-08-26T15:09:48.019Z,7.67
2022-08-26T15:12:16.422Z,5.00
2022-08-26T15:14:44.814Z,5.67
2022-08-26T15:17:13.267Z,6.00
2022-08-26T15:19:41.740Z,6.00
2022-08-26T15:22:10.503Z,7.00
2022-08-26T15:24:39.025Z,6.00
2022-08-26T15:27:08.529Z,5.67
2022-08-26T15:29:39.762Z,4.86
2022-08-26T15:32:08.460Z,5.67
2022-08-26T15:34:37.027Z,6.00
2022-08-26T15:37:06.559Z,4.67
2022-08-26T15:39:36.790Z,5.67
2022-08-26T15:42:05.801Z,6.00
2022-08-26T15:44:34.335Z,6.00
2022-08-26T15:47:02.913Z,7.00
2022-08-26T15:49:31.399Z,5.67
2022-08-26T15:51:59.800Z,6.33
2022-08-26T15:54:28.191Z,6.00
2022-08-26T15:56:57.250Z,6.67
2022-08-26T15:59:25.979Z,5.00
2022-08-26T16:01:59.250Z,6.33
2022-08-26T16:04:27.991Z,5.33
2022-08-26T16:06:56.434Z,6.67
2022-08-26T16:09:27.290Z,5.00
2022-08-26T16:11:57.158Z,6.00
2022-08-26T16:14:27.383Z,6.00
2022-08-26T16:16:58.609Z,7.00
2022-08-26T16:19:27.571Z,7.00
2022-08-26T16:21:55.992Z,6.33
2022-08-26T16:24:30.088Z,6.33
2022-08-26T16:26:59.055Z,6.00
2022-08-26T16:29:28.113Z,5.33
2022-08-26T16:31:57.321Z,6.67
2022-08-26T16:34:26.101Z,5.00
2022-08-26T16:36:56.035Z,7.67
2022-08-26T16:39:27.401Z,6.67
2022-08-26T16:41:55.946Z,7.00
2022-08-26T16:44:24.683Z,5.33
2022-08-26T16:46:59.170Z,7.00
2022-08-26T16:49:27.731Z,6.67
2022-08-26T16:51:57.261Z,5.00
2022-08-26T16:54:26.690Z,5.67
2022-08-26T16:56:55.203Z,6.00
2022-08-26T16:59:24.222Z,6.67
2022-08-26T17:01:53.046Z,6.67
2022-08-26T17:04:22.120Z,7.67
2022-08-26T17:06:51.328Z,6.67
2022-08-26T17:09:20.303Z,7.00
2022-08-26T17:11:49.036Z,7.00
2022-08-26T17:14:17.753Z,7.00
2022-08-26T17:16:47.086Z,5.33
2022-08-26T17:19:17.817Z,6.67
2022-08-26T17:21:47.302Z,4.67
2022-08-26T17:24:15.739Z,4.67
2022-08-26T17:26:53.454Z,7.00
2022-08-26T17:29:24.075Z,6.67
2022-08-26T17:31:52.639Z,5.33
2022-08-26T17:34:22.836Z,6.00
2022-08-26T17:36:51.748Z,7.00
2022-08-26T17:39:20.526Z,5.33
2022-08-26T17:41:49.127Z,5.00
2022-08-26T17:44:17.615Z,6.67
2022-08-26T17:46:46.111Z,6.00
2022-08-26T17:49:14.544Z,7.00
2022-08-26T17:51:43.044Z,6.00
2022-08-26T17:54:11.692Z,5.00
2022-08-26T17:56:40.245Z,6.00
2022-08-26T17:59:09.946Z,6.00
2022-08-26T18:01:39.867Z,7.33
2022-08-26T18:04:08.522Z,7.33
2022-08-26T18:06:38.365Z,6.33
2022-08-26T18:09:07.123Z,7.00
2022-08-26T18:11:35.877Z,6.67
2022-08-26T18:14:04.633Z,8.33
2022-08-26T18:16:38.341Z,6.67
2022-08-26T18:19:07.991Z,7.00
2022-08-26T18:21:37.006Z,7.00
2022-08-26T18:24:07.562Z,7.00
2022-08-26T18:26:41.612Z,6.00
2022-08-26T18:29:11.308Z,8.00
2022-08-26T18:31:40.069Z,8.00
2022-08-26T18:34:12.954Z,7.33
2022-08-26T18:36:41.794Z,6.33
2022-08-26T18:39:12.486Z,6.67
2022-08-26T18:41:47.915Z,4.33
2022-08-26T18:44:20.301Z,8.00
2022-08-26T18:46:50.251Z,9.00
2022-08-26T18:49:21.555Z,7.67
2022-08-26T18:51:53.040Z,8.33
2022-08-26T18:54:22.253Z,10.00
2022-08-26T18:56:50.973Z,10.33
2022-08-26T18:59:19.743Z,8.33
2022-08-26T19:01:55.549Z,9.00
2022-08-26T19:04:24.255Z,9.67
2022-08-26T19:06:53.482Z,8.33
2022-08-26T19:09:22.131Z,9.33
2022-08-26T19:11:51.506Z,8.67
2022-08-26T19:14:20.893Z,8.00
2022-08-26T19:16:52.554Z,7.67
2022-08-26T19:19:25.751Z,9.50
2022-08-26T19:21:55.194Z,8.33
2022-08-26T19:24:27.439Z,10.67
2022-08-26T19:27:01.296Z,10.00
2022-08-26T19:29:35.888Z,10.00
2022-08-26T19:32:05.509Z,10.00
2022-08-26T19:34:34.290Z,9.00
2022-08-26T19:37:02.884Z,10.67
2022-08-26T19:39:31.581Z,13.33
2022-08-26T19:42:00.648Z,12.33
2022-08-26T19:44:47.832Z,15.00
2022-08-26T19:47:16.342Z,11.67
2022-08-26T19:49:45.862Z,9.00
2022-08-26T19:52:14.720Z,11.00
2022-08-26T19:54:43.290Z,10.67
2022-08-26T19:57:12.031Z,10.00
2022-08-26T19:59:41.799Z,11.00
2022-08-26T20:02:11.449Z,10.00
2022-08-26T20:04:44.327Z,9.00
2022-08-26T20:07:18.503Z,10.00
2022-08-26T20:09:49.279Z,9.67
2022-08-26T20:12:18.895Z,9.00
2022-08-26T20:14:47.682Z,11.00
2022-08-26T20:17:17.211Z,11.00
2022-08-26T20:20:04.747Z,9.67
2022-08-26T20:22:35.951Z,8.67
2022-08-26T20:25:06.409Z,10.00
2022-08-26T20:27:38.211Z,10.67
2022-08-26T20:30:10.524Z,9.67
2022-08-26T20:32:40.264Z,10.00
2022-08-26T20:35:15.900Z,10.00
2022-08-26T20:37:44.597Z,8.33
2022-08-26T20:40:15.517Z,7.67
2022-08-26T20:42:43.991Z,9.67
2022-08-26T20:45:12.737Z,9.00
2022-08-26T20:47:42.910Z,9.33
2022-08-26T20:50:11.455Z,10.00
2022-08-26T20:52:40.090Z,10.00
2022-08-26T20:55:09.570Z,10.33
2022-08-26T20:57:38.015Z,9.67
2022-08-26T21:00:08.223Z,9.00
2022-08-26T21:02:37.078Z,10.00
2022-08-26T21:05:07.361Z,9.67
2022-08-26T21:07:36.159Z,10.00
2022-08-26T21:10:05.566Z,11.00
2022-08-26T21:12:34.189Z,10.50
2022-08-26T21:15:04.623Z,10.00
2022-08-26T21:17:35.296Z,8.60
2022-08-26T21:20:04.990Z,10.00
2022-08-26T21:22:34.200Z,9.00
2022-08-26T21:25:02.958Z,10.67
2022-08-26T21:27:31.663Z,11.00
2022-08-26T21:30:00.110Z,9.67
2022-08-26T21:32:29.047Z,11.00
2022-08-26T21:35:00.072Z,11.33
2022-08-26T21:37:29.749Z,12.00
2022-08-26T21:40:02.139Z,13.00
2022-08-26T21:42:34.744Z,10.67
2022-08-26T21:45:04.505Z,11.00
2022-08-26T21:47:33.193Z,12.00
2022-08-26T21:50:01.963Z,13.00
2022-08-26T21:52:30.530Z,11.33
2022-08-26T21:55:04.512Z,11.33
2022-08-26T21:57:37.765Z,11.67
2022-08-26T22:00:10.274Z,14.00
2022-08-26T22:02:39.236Z,12.00
2022-08-26T22:05:08.497Z,13.00
2022-08-26T22:07:37.077Z,14.00
2022-08-26T22:10:06.683Z,12.00
2022-08-26T22:12:35.365Z,14.00
2022-08-26T22:15:05.026Z,14.00
2022-08-26T22:17:33.698Z,13.00
2022-08-26T22:20:02.578Z,12.50
2022-08-26T22:22:32.325Z,12.00
2022-08-26T22:25:00.855Z,12.00
2022-08-26T22:27:29.508Z,13.50
2022-08-26T22:29:58.142Z,12.00
2022-08-26T22:32:27.569Z,13.00
2022-08-26T22:34:56.945Z,13.00
2022-08-26T22:37:26.339Z,13.00
2022-08-26T22:39:54.986Z,12.50
2022-08-26T22:42:23.551Z,15.33
2022-08-26T22:44:52.166Z,16.00
2022-08-26T22:47:20.809Z,17.00
2022-08-26T22:49:49.435Z,15.67
2022-08-26T22:52:18.052Z,16.33
2022-08-26T22:54:46.701Z,16.00
2022-08-26T22:57:15.399Z,18.00
2022-08-26T22:59:44.649Z,18.67
2022-08-26T23:02:13.599Z,16.00
2022-08-26T23:04:43.034Z,13.50
2022-08-26T23:07:12.433Z,14.33
2022-08-26T23:09:41.032Z,13.00
2022-08-26T23:12:09.939Z,12.00
2022-08-26T23:14:40.583Z,14.33
2022-08-26T23:17:14.386Z,12.50
2022-08-26T23:19:42.273Z,11.50
2022-08-26T23:22:11.033Z,10.50
2022-08-26T23:24:40.552Z,12.00
2022-08-26T23:27:09.423Z,13.00
2022-08-26T23:29:37.941Z,11.00
2022-08-26T23:32:06.772Z,11.00
2022-08-26T23:34:55.984Z,4.00
2022-08-26T23:37:37.211Z,13.50
2022-08-26T23:40:36.389Z,13.33
2022-08-26T23:43:11.546Z,13.00
2022-08-26T23:45:40.379Z,12.00
2022-08-26T23:48:08.298Z,11.00
2022-08-26T23:50:54.730Z,11.00
2022-08-26T23:53:23.629Z,12.00
2022-08-26T23:55:54.125Z,13.00
2022-08-26T23:58:23.221Z,13.00
